sensor_id;sensor_type;location;lat;lon;timestamp;P1;durP1;ratioP1;P2;durP2;ratioP2
16115;SDS011;8162;47.104;15.432;2023-08-08T00:01:18;2.27;;;1.50;;
16115;SDS011;8162;47.104;15.432;2023-08-08T00:04:19;4.70;;;1.70;;
16115;SDS011;8162;47.104;15.432;2023-08-08T00:07:20;1.70;;;1.20;;
16115;SDS011;8162;47.104;15.432;2023-08-08T00:10:21;2.57;;;1.37;;
16115;SDS011;8162;47.104;15.432;2023-08-08T00:13:22;1.23;;;1.13;;
16115;SDS011;8162;47.104;15.432;2023-08-08T00:16:24;3.30;;;1.27;;
16115;SDS011;8162;47.104;15.432;2023-08-08T00:19:25;1.73;;;1.13;;
16115;SDS011;8162;47.104;15.432;2023-08-08T00:22:26;3.30;;;1.20;;
16115;SDS011;8162;47.104;15.432;2023-08-08T00:25:27;3.13;;;1.40;;
16115;SDS011;8162;47.104;15.432;2023-08-08T00:28:28;3.03;;;1.23;;
16115;SDS011;8162;47.104;15.432;2023-08-08T00:31:29;4.27;;;1.20;;
16115;SDS011;8162;47.104;15.432;2023-08-08T00:34:30;1.53;;;1.33;;
16115;SDS011;8162;47.104;15.432;2023-08-08T00:37:31;1.50;;;1.30;;
16115;SDS011;8162;47.104;15.432;2023-08-08T00:40:32;1.40;;;1.30;;
16115;SDS011;8162;47.104;15.432;2023-08-08T00:43:33;3.53;;;1.23;;
16115;SDS011;8162;47.104;15.432;2023-08-08T00:46:34;2.23;;;1.53;;
16115;SDS011;8162;47.104;15.432;2023-08-08T00:49:35;4.90;;;1.20;;
16115;SDS011;8162;47.104;15.432;2023-08-08T00:52:37;1.70;;;1.37;;
16115;SDS011;8162;47.104;15.432;2023-08-08T00:55:39;7.13;;;1.20;;
16115;SDS011;8162;47.104;15.432;2023-08-08T00:58:40;2.27;;;1.10;;
16115;SDS011;8162;47.104;15.432;2023-08-08T01:01:41;1.50;;;1.40;;
16115;SDS011;8162;47.104;15.432;2023-08-08T01:04:42;2.07;;;1.23;;
16115;SDS011;8162;47.104;15.432;2023-08-08T01:10:44;1.57;;;1.20;;
16115;SDS011;8162;47.104;15.432;2023-08-08T01:13:46;1.73;;;0.90;;
16115;SDS011;8162;47.104;15.432;2023-08-08T01:16:47;2.40;;;1.27;;
16115;SDS011;8162;47.104;15.432;2023-08-08T01:19:48;2.67;;;1.30;;
16115;SDS011;8162;47.104;15.432;2023-08-08T01:22:55;2.23;;;1.30;;
16115;SDS011;8162;47.104;15.432;2023-08-08T01:25:59;2.60;;;1.20;;
16115;SDS011;8162;47.104;15.432;2023-08-08T01:29:00;1.83;;;1.00;;
16115;SDS011;8162;47.104;15.432;2023-08-08T01:32:01;2.13;;;1.57;;
16115;SDS011;8162;47.104;15.432;2023-08-08T01:35:02;2.93;;;1.40;;
16115;SDS011;8162;47.104;15.432;2023-08-08T01:38:11;1.07;;;0.97;;
16115;SDS011;8162;47.104;15.432;2023-08-08T01:41:13;1.53;;;1.10;;
16115;SDS011;8162;47.104;15.432;2023-08-08T01:44:15;1.03;;;0.80;;
16115;SDS011;8162;47.104;15.432;2023-08-08T01:47:17;1.10;;;1.00;;
16115;SDS011;8162;47.104;15.432;2023-08-08T01:50:18;1.50;;;1.10;;
16115;SDS011;8162;47.104;15.432;2023-08-08T01:53:21;5.17;;;1.10;;
16115;SDS011;8162;47.104;15.432;2023-08-08T01:56:22;2.87;;;1.43;;
16115;SDS011;8162;47.104;15.432;2023-08-08T01:59:23;1.63;;;0.97;;
16115;SDS011;8162;47.104;15.432;2023-08-08T02:02:24;1.83;;;1.30;;
16115;SDS011;8162;47.104;15.432;2023-08-08T02:05:25;3.00;;;1.20;;
16115;SDS011;8162;47.104;15.432;2023-08-08T02:08:26;2.67;;;1.47;;
16115;SDS011;8162;47.104;15.432;2023-08-08T02:11:27;3.70;;;1.30;;
16115;SDS011;8162;47.104;15.432;2023-08-08T02:14:28;4.43;;;1.20;;
16115;SDS011;8162;47.104;15.432;2023-08-08T02:17:29;1.27;;;0.90;;
16115;SDS011;8162;47.104;15.432;2023-08-08T02:20:30;2.37;;;1.20;;
16115;SDS011;8162;47.104;15.432;2023-08-08T02:23:31;1.37;;;1.27;;
16115;SDS011;8162;47.104;15.432;2023-08-08T02:26:32;2.17;;;1.00;;
16115;SDS011;8162;47.104;15.432;2023-08-08T02:29:33;3.63;;;1.20;;
16115;SDS011;8162;47.104;15.432;2023-08-08T02:32:34;1.83;;;1.27;;
16115;SDS011;8162;47.104;15.432;2023-08-08T02:35:36;3.83;;;1.30;;
16115;SDS011;8162;47.104;15.432;2023-08-08T02:38:37;2.37;;;1.20;;
16115;SDS011;8162;47.104;15.432;2023-08-08T02:41:38;2.93;;;1.03;;
16115;SDS011;8162;47.104;15.432;2023-08-08T02:44:40;1.17;;;1.07;;
16115;SDS011;8162;47.104;15.432;2023-08-08T02:47:41;1.33;;;1.00;;
16115;SDS011;8162;47.104;15.432;2023-08-08T02:50:42;3.03;;;1.17;;
16115;SDS011;8162;47.104;15.432;2023-08-08T02:53:43;0.87;;;0.83;;
16115;SDS011;8162;47.104;15.432;2023-08-08T02:56:44;1.27;;;1.10;;
16115;SDS011;8162;47.104;15.432;2023-08-08T02:59:45;1.70;;;0.97;;
16115;SDS011;8162;47.104;15.432;2023-08-08T03:02:46;2.80;;;1.00;;
16115;SDS011;8162;47.104;15.432;2023-08-08T03:05:47;2.10;;;1.40;;
16115;SDS011;8162;47.104;15.432;2023-08-08T03:08:48;3.97;;;1.27;;
16115;SDS011;8162;47.104;15.432;2023-08-08T03:11:49;3.07;;;1.10;;
16115;SDS011;8162;47.104;15.432;2023-08-08T03:14:50;3.30;;;1.47;;
16115;SDS011;8162;47.104;15.432;2023-08-08T03:17:51;1.10;;;0.90;;
16115;SDS011;8162;47.104;15.432;2023-08-08T03:20:52;1.27;;;1.10;;
16115;SDS011;8162;47.104;15.432;2023-08-08T03:23:53;1.00;;;0.80;;
16115;SDS011;8162;47.104;15.432;2023-08-08T03:26:54;3.03;;;1.20;;
16115;SDS011;8162;47.104;15.432;2023-08-08T03:29:55;1.83;;;1.00;;
16115;SDS011;8162;47.104;15.432;2023-08-08T03:32:57;2.00;;;1.10;;
16115;SDS011;8162;47.104;15.432;2023-08-08T03:35:58;1.37;;;1.23;;
16115;SDS011;8162;47.104;15.432;2023-08-08T03:38:59;3.30;;;1.10;;
16115;SDS011;8162;47.104;15.432;2023-08-08T03:42:00;1.80;;;1.17;;
16115;SDS011;8162;47.104;15.432;2023-08-08T03:45:01;1.10;;;1.00;;
16115;SDS011;8162;47.104;15.432;2023-08-08T03:48:02;1.27;;;1.10;;
16115;SDS011;8162;47.104;15.432;2023-08-08T03:51:03;2.50;;;1.20;;
16115;SDS011;8162;47.104;15.432;2023-08-08T03:54:04;2.50;;;1.13;;
16115;SDS011;8162;47.104;15.432;2023-08-08T03:57:05;0.90;;;0.90;;
16115;SDS011;8162;47.104;15.432;2023-08-08T04:00:06;2.67;;;1.23;;
16115;SDS011;8162;47.104;15.432;2023-08-08T04:03:08;1.67;;;1.57;;
16115;SDS011;8162;47.104;15.432;2023-08-08T04:06:09;0.90;;;0.90;;
16115;SDS011;8162;47.104;15.432;2023-08-08T04:09:10;2.87;;;1.13;;
16115;SDS011;8162;47.104;15.432;2023-08-08T04:12:11;3.63;;;1.30;;
16115;SDS011;8162;47.104;15.432;2023-08-08T04:15:12;1.23;;;1.03;;
16115;SDS011;8162;47.104;15.432;2023-08-08T04:18:13;4.87;;;1.20;;
16115;SDS011;8162;47.104;15.432;2023-08-08T04:21:14;1.27;;;1.17;;
16115;SDS011;8162;47.104;15.432;2023-08-08T04:24:15;2.17;;;1.40;;
16115;SDS011;8162;47.104;15.432;2023-08-08T04:27:16;2.58;;;1.48;;
16115;SDS011;8162;47.104;15.432;2023-08-08T04:30:18;2.00;;;1.40;;
16115;SDS011;8162;47.104;15.432;2023-08-08T04:33:19;1.63;;;1.20;;
16115;SDS011;8162;47.104;15.432;2023-08-08T04:36:20;1.30;;;1.20;;
16115;SDS011;8162;47.104;15.432;2023-08-08T04:39:21;1.47;;;1.23;;
16115;SDS011;8162;47.104;15.432;2023-08-08T04:42:22;3.97;;;1.30;;
16115;SDS011;8162;47.104;15.432;2023-08-08T04:45:23;1.60;;;1.40;;
16115;SDS011;8162;47.104;15.432;2023-08-08T04:48:24;4.17;;;1.53;;
16115;SDS011;8162;47.104;15.432;2023-08-08T04:51:25;2.30;;;1.37;;
16115;SDS011;8162;47.104;15.432;2023-08-08T04:54:26;2.53;;;1.33;;
16115;SDS011;8162;47.104;15.432;2023-08-08T04:57:27;5.47;;;1.40;;
16115;SDS011;8162;47.104;15.432;2023-08-08T05:00:28;3.00;;;1.50;;
16115;SDS011;8162;47.104;15.432;2023-08-08T05:03:29;1.53;;;1.20;;
16115;SDS011;8162;47.104;15.432;2023-08-08T05:06:30;1.57;;;1.20;;
16115;SDS011;8162;47.104;15.432;2023-08-08T05:09:31;3.03;;;1.60;;
16115;SDS011;8162;47.104;15.432;2023-08-08T05:12:32;1.67;;;1.40;;
16115;SDS011;8162;47.104;15.432;2023-08-08T05:15:33;1.13;;;1.03;;
16115;SDS011;8162;47.104;15.432;2023-08-08T05:18:34;1.47;;;1.37;;
16115;SDS011;8162;47.104;15.432;2023-08-08T05:21:36;1.40;;;1.10;;
16115;SDS011;8162;47.104;15.432;2023-08-08T05:24:37;2.23;;;1.20;;
16115;SDS011;8162;47.104;15.432;2023-08-08T05:27:38;2.53;;;1.27;;
16115;SDS011;8162;47.104;15.432;2023-08-08T05:30:39;6.17;;;1.50;;
16115;SDS011;8162;47.104;15.432;2023-08-08T05:33:40;2.47;;;1.40;;
16115;SDS011;8162;47.104;15.432;2023-08-08T05:36:41;1.33;;;1.13;;
16115;SDS011;8162;47.104;15.432;2023-08-08T05:39:43;2.30;;;1.47;;
16115;SDS011;8162;47.104;15.432;2023-08-08T05:42:44;1.87;;;1.67;;
16115;SDS011;8162;47.104;15.432;2023-08-08T05:45:45;1.43;;;1.33;;
16115;SDS011;8162;47.104;15.432;2023-08-08T05:48:46;3.27;;;1.37;;
16115;SDS011;8162;47.104;15.432;2023-08-08T05:51:47;2.30;;;1.50;;
16115;SDS011;8162;47.104;15.432;2023-08-08T05:54:48;2.17;;;1.13;;
16115;SDS011;8162;47.104;15.432;2023-08-08T05:57:49;2.07;;;1.50;;
16115;SDS011;8162;47.104;15.432;2023-08-08T06:00:50;1.73;;;1.50;;
16115;SDS011;8162;47.104;15.432;2023-08-08T06:03:51;1.80;;;1.20;;
16115;SDS011;8162;47.104;15.432;2023-08-08T06:06:53;2.30;;;1.50;;
16115;SDS011;8162;47.104;15.432;2023-08-08T06:09:54;1.50;;;1.23;;
16115;SDS011;8162;47.104;15.432;2023-08-08T06:12:55;2.90;;;1.37;;
16115;SDS011;8162;47.104;15.432;2023-08-08T06:15:56;2.63;;;1.30;;
16115;SDS011;8162;47.104;15.432;2023-08-08T06:18:57;2.97;;;1.60;;
16115;SDS011;8162;47.104;15.432;2023-08-08T06:21:58;2.97;;;1.23;;
16115;SDS011;8162;47.104;15.432;2023-08-08T06:24:59;2.03;;;1.43;;
16115;SDS011;8162;47.104;15.432;2023-08-08T06:28:00;2.90;;;1.60;;
16115;SDS011;8162;47.104;15.432;2023-08-08T06:31:01;1.70;;;1.60;;
16115;SDS011;8162;47.104;15.432;2023-08-08T06:34:02;2.57;;;1.20;;
16115;SDS011;8162;47.104;15.432;2023-08-08T06:37:03;2.27;;;1.23;;
16115;SDS011;8162;47.104;15.432;2023-08-08T06:40:04;1.70;;;1.50;;
16115;SDS011;8162;47.104;15.432;2023-08-08T06:43:07;1.83;;;1.57;;
16115;SDS011;8162;47.104;15.432;2023-08-08T06:46:08;5.10;;;1.70;;
16115;SDS011;8162;47.104;15.432;2023-08-08T06:49:09;1.97;;;1.40;;
16115;SDS011;8162;47.104;15.432;2023-08-08T06:52:10;2.33;;;1.40;;
16115;SDS011;8162;47.104;15.432;2023-08-08T06:55:11;2.40;;;1.67;;
16115;SDS011;8162;47.104;15.432;2023-08-08T06:58:12;1.90;;;1.40;;
16115;SDS011;8162;47.104;15.432;2023-08-08T07:01:13;1.40;;;1.30;;
16115;SDS011;8162;47.104;15.432;2023-08-08T07:04:14;1.87;;;1.40;;
16115;SDS011;8162;47.104;15.432;2023-08-08T07:07:16;3.47;;;1.30;;
16115;SDS011;8162;47.104;15.432;2023-08-08T07:10:17;1.63;;;1.53;;
16115;SDS011;8162;47.104;15.432;2023-08-08T07:13:18;1.60;;;1.30;;
16115;SDS011;8162;47.104;15.432;2023-08-08T07:16:19;1.57;;;1.47;;
16115;SDS011;8162;47.104;15.432;2023-08-08T07:19:20;4.20;;;1.80;;
16115;SDS011;8162;47.104;15.432;2023-08-08T07:22:21;2.27;;;1.83;;
16115;SDS011;8162;47.104;15.432;2023-08-08T07:25:22;3.37;;;1.80;;
16115;SDS011;8162;47.104;15.432;2023-08-08T07:28:23;3.20;;;1.87;;
16115;SDS011;8162;47.104;15.432;2023-08-08T07:31:25;3.40;;;1.53;;
16115;SDS011;8162;47.104;15.432;2023-08-08T07:34:26;2.07;;;1.57;;
16115;SDS011;8162;47.104;15.432;2023-08-08T07:37:27;3.40;;;1.50;;
16115;SDS011;8162;47.104;15.432;2023-08-08T07:40:28;2.80;;;1.43;;
16115;SDS011;8162;47.104;15.432;2023-08-08T07:43:29;2.80;;;1.60;;
16115;SDS011;8162;47.104;15.432;2023-08-08T07:46:30;2.07;;;1.40;;
16115;SDS011;8162;47.104;15.432;2023-08-08T07:49:31;1.40;;;1.30;;
16115;SDS011;8162;47.104;15.432;2023-08-08T07:52:32;1.93;;;1.43;;
16115;SDS011;8162;47.104;15.432;2023-08-08T07:55:33;1.30;;;1.20;;
16115;SDS011;8162;47.104;15.432;2023-08-08T07:58:34;1.40;;;1.10;;
16115;SDS011;8162;47.104;15.432;2023-08-08T08:01:35;1.33;;;1.20;;
16115;SDS011;8162;47.104;15.432;2023-08-08T08:04:36;1.63;;;1.43;;
16115;SDS011;8162;47.104;15.432;2023-08-08T08:07:37;2.50;;;1.40;;
16115;SDS011;8162;47.104;15.432;2023-08-08T08:10:39;1.27;;;1.00;;
16115;SDS011;8162;47.104;15.432;2023-08-08T08:13:40;2.70;;;1.37;;
16115;SDS011;8162;47.104;15.432;2023-08-08T08:16:41;1.87;;;1.30;;
16115;SDS011;8162;47.104;15.432;2023-08-08T08:19:42;2.23;;;1.40;;
16115;SDS011;8162;47.104;15.432;2023-08-08T08:22:43;1.27;;;1.17;;
16115;SDS011;8162;47.104;15.432;2023-08-08T08:25:44;1.03;;;0.93;;
16115;SDS011;8162;47.104;15.432;2023-08-08T08:28:45;2.53;;;1.17;;
16115;SDS011;8162;47.104;15.432;2023-08-08T08:31:46;1.97;;;1.30;;
16115;SDS011;8162;47.104;15.432;2023-08-08T08:34:48;1.83;;;1.23;;
16115;SDS011;8162;47.104;15.432;2023-08-08T08:37:49;1.30;;;1.20;;
16115;SDS011;8162;47.104;15.432;2023-08-08T08:40:50;1.60;;;1.20;;
16115;SDS011;8162;47.104;15.432;2023-08-08T08:43:54;3.33;;;1.40;;
16115;SDS011;8162;47.104;15.432;2023-08-08T08:46:56;1.67;;;1.47;;
16115;SDS011;8162;47.104;15.432;2023-08-08T08:49:58;2.33;;;1.30;;
16115;SDS011;8162;47.104;15.432;2023-08-08T08:53:01;3.20;;;1.40;;
16115;SDS011;8162;47.104;15.432;2023-08-08T08:56:02;1.53;;;1.13;;
16115;SDS011;8162;47.104;15.432;2023-08-08T08:59:03;1.73;;;1.30;;
16115;SDS011;8162;47.104;15.432;2023-08-08T09:02:04;1.30;;;1.20;;
16115;SDS011;8162;47.104;15.432;2023-08-08T09:05:06;1.73;;;1.30;;
16115;SDS011;8162;47.104;15.432;2023-08-08T09:08:08;1.30;;;1.20;;
16115;SDS011;8162;47.104;15.432;2023-08-08T09:11:09;1.30;;;1.20;;
16115;SDS011;8162;47.104;15.432;2023-08-08T09:14:17;2.13;;;1.20;;
16115;SDS011;8162;47.104;15.432;2023-08-08T09:17:18;1.30;;;1.00;;
16115;SDS011;8162;47.104;15.432;2023-08-08T09:20:19;2.10;;;1.20;;
16115;SDS011;8162;47.104;15.432;2023-08-08T09:23:20;1.53;;;1.20;;
16115;SDS011;8162;47.104;15.432;2023-08-08T09:26:21;2.07;;;1.13;;
16115;SDS011;8162;47.104;15.432;2023-08-08T09:29:23;1.60;;;0.97;;
16115;SDS011;8162;47.104;15.432;2023-08-08T09:32:28;4.83;;;1.50;;
16115;SDS011;8162;47.104;15.432;2023-08-08T09:35:30;2.47;;;1.30;;
16115;SDS011;8162;47.104;15.432;2023-08-08T09:38:31;1.60;;;1.40;;
16115;SDS011;8162;47.104;15.432;2023-08-08T09:41:32;1.27;;;1.10;;
16115;SDS011;8162;47.104;15.432;2023-08-08T09:44:33;2.60;;;1.30;;
16115;SDS011;8162;47.104;15.432;2023-08-08T09:47:35;2.10;;;1.30;;
16115;SDS011;8162;47.104;15.432;2023-08-08T09:50:36;2.17;;;1.47;;
16115;SDS011;8162;47.104;15.432;2023-08-08T09:53:37;1.47;;;1.13;;
16115;SDS011;8162;47.104;15.432;2023-08-08T09:56:39;1.90;;;1.03;;
16115;SDS011;8162;47.104;15.432;2023-08-08T09:59:40;1.30;;;1.20;;
16115;SDS011;8162;47.104;15.432;2023-08-08T10:02:45;1.33;;;1.10;;
16115;SDS011;8162;47.104;15.432;2023-08-08T10:05:46;1.70;;;1.30;;
16115;SDS011;8162;47.104;15.432;2023-08-08T10:08:47;1.93;;;1.40;;
16115;SDS011;8162;47.104;15.432;2023-08-08T10:11:48;3.37;;;1.47;;
16115;SDS011;8162;47.104;15.432;2023-08-08T10:14:49;1.13;;;1.03;;
16115;SDS011;8162;47.104;15.432;2023-08-08T10:17:52;1.47;;;1.20;;
16115;SDS011;8162;47.104;15.432;2023-08-08T10:20:54;2.13;;;1.10;;
16115;SDS011;8162;47.104;15.432;2023-08-08T10:24:05;1.87;;;1.00;;
16115;SDS011;8162;47.104;15.432;2023-08-08T10:27:06;1.53;;;1.23;;
16115;SDS011;8162;47.104;15.432;2023-08-08T10:30:08;1.43;;;1.17;;
16115;SDS011;8162;47.104;15.432;2023-08-08T10:33:21;1.23;;;1.00;;
16115;SDS011;8162;47.104;15.432;2023-08-08T10:36:22;1.40;;;1.30;;
16115;SDS011;8162;47.104;15.432;2023-08-08T10:39:24;1.63;;;1.27;;
16115;SDS011;8162;47.104;15.432;2023-08-08T10:42:26;1.20;;;0.90;;
16115;SDS011;8162;47.104;15.432;2023-08-08T10:45:29;1.33;;;1.23;;
16115;SDS011;8162;47.104;15.432;2023-08-08T10:48:30;3.90;;;1.60;;
16115;SDS011;8162;47.104;15.432;2023-08-08T10:51:33;2.00;;;1.40;;
16115;SDS011;8162;47.104;15.432;2023-08-08T10:54:34;2.20;;;1.43;;
16115;SDS011;8162;47.104;15.432;2023-08-08T10:57:36;2.13;;;1.30;;
16115;SDS011;8162;47.104;15.432;2023-08-08T11:00:37;1.47;;;1.20;;
16115;SDS011;8162;47.104;15.432;2023-08-08T11:03:41;1.23;;;1.10;;
16115;SDS011;8162;47.104;15.432;2023-08-08T11:06:43;1.00;;;1.00;;
16115;SDS011;8162;47.104;15.432;2023-08-08T11:09:44;2.17;;;0.97;;
16115;SDS011;8162;47.104;15.432;2023-08-08T11:12:53;1.73;;;1.13;;
16115;SDS011;8162;47.104;15.432;2023-08-08T11:15:54;0.90;;;0.90;;
16115;SDS011;8162;47.104;15.432;2023-08-08T11:18:55;2.43;;;1.00;;
16115;SDS011;8162;47.104;15.432;2023-08-08T11:21:56;1.40;;;1.00;;
16115;SDS011;8162;47.104;15.432;2023-08-08T11:24:57;1.17;;;0.70;;
16115;SDS011;8162;47.104;15.432;2023-08-08T11:28:04;1.10;;;1.00;;
16115;SDS011;8162;47.104;15.432;2023-08-08T11:31:05;1.13;;;1.03;;
16115;SDS011;8162;47.104;15.432;2023-08-08T11:34:08;1.03;;;0.90;;
16115;SDS011;8162;47.104;15.432;2023-08-08T11:37:10;1.93;;;1.10;;
16115;SDS011;8162;47.104;15.432;2023-08-08T11:40:12;1.03;;;0.90;;
16115;SDS011;8162;47.104;15.432;2023-08-08T11:43:13;1.17;;;1.07;;
16115;SDS011;8162;47.104;15.432;2023-08-08T11:46:15;2.00;;;1.40;;
16115;SDS011;8162;47.104;15.432;2023-08-08T11:49:17;1.47;;;1.37;;
16115;SDS011;8162;47.104;15.432;2023-08-08T11:52:18;0.90;;;0.90;;
16115;SDS011;8162;47.104;15.432;2023-08-08T11:55:20;1.57;;;0.93;;
16115;SDS011;8162;47.104;15.432;2023-08-08T11:58:23;1.17;;;1.07;;
16115;SDS011;8162;47.104;15.432;2023-08-08T12:01:25;1.87;;;1.23;;
16115;SDS011;8162;47.104;15.432;2023-08-08T12:04:26;1.20;;;1.00;;
16115;SDS011;8162;47.104;15.432;2023-08-08T12:07:28;0.70;;;0.70;;
16115;SDS011;8162;47.104;15.432;2023-08-08T12:10:32;1.00;;;0.90;;
16115;SDS011;8162;47.104;15.432;2023-08-08T12:13:33;0.80;;;0.67;;
16115;SDS011;8162;47.104;15.432;2023-08-08T12:16:37;2.20;;;0.80;;
16115;SDS011;8162;47.104;15.432;2023-08-08T12:19:46;2.63;;;1.20;;
16115;SDS011;8162;47.104;15.432;2023-08-08T12:22:48;2.57;;;0.97;;
16115;SDS011;8162;47.104;15.432;2023-08-08T12:25:49;1.17;;;1.07;;
16115;SDS011;8162;47.104;15.432;2023-08-08T12:28:50;1.03;;;1.03;;
16115;SDS011;8162;47.104;15.432;2023-08-08T12:31:53;1.30;;;0.60;;
16115;SDS011;8162;47.104;15.432;2023-08-08T12:34:55;0.80;;;0.80;;
16115;SDS011;8162;47.104;15.432;2023-08-08T12:37:56;1.17;;;0.93;;
16115;SDS011;8162;47.104;15.432;2023-08-08T12:40:57;0.90;;;0.80;;
16115;SDS011;8162;47.104;15.432;2023-08-08T12:43:58;1.53;;;0.97;;
16115;SDS011;8162;47.104;15.432;2023-08-08T12:46:59;3.93;;;1.00;;
16115;SDS011;8162;47.104;15.432;2023-08-08T12:50:00;2.30;;;0.90;;
16115;SDS011;8162;47.104;15.432;2023-08-08T12:53:01;0.87;;;0.80;;
16115;SDS011;8162;47.104;15.432;2023-08-08T12:56:03;0.80;;;0.80;;
16115;SDS011;8162;47.104;15.432;2023-08-08T12:59:05;1.20;;;0.80;;
16115;SDS011;8162;47.104;15.432;2023-08-08T13:02:07;1.90;;;0.80;;
16115;SDS011;8162;47.104;15.432;2023-08-08T13:05:08;2.27;;;0.90;;
16115;SDS011;8162;47.104;15.432;2023-08-08T13:08:09;0.97;;;0.90;;
16115;SDS011;8162;47.104;15.432;2023-08-08T13:11:13;0.90;;;0.80;;
16115;SDS011;8162;47.104;15.432;2023-08-08T13:14:14;1.97;;;1.00;;
16115;SDS011;8162;47.104;15.432;2023-08-08T13:17:16;3.10;;;0.80;;
16115;SDS011;8162;47.104;15.432;2023-08-08T13:20:17;2.13;;;0.80;;
16115;SDS011;8162;47.104;15.432;2023-08-08T13:23:18;1.20;;;1.10;;
16115;SDS011;8162;47.104;15.432;2023-08-08T13:26:19;0.83;;;0.73;;
16115;SDS011;8162;47.104;15.432;2023-08-08T13:29:20;1.40;;;0.90;;
16115;SDS011;8162;47.104;15.432;2023-08-08T13:32:21;1.60;;;0.90;;
16115;SDS011;8162;47.104;15.432;2023-08-08T13:35:22;0.93;;;0.83;;
16115;SDS011;8162;47.104;15.432;2023-08-08T13:38:24;2.83;;;0.80;;
16115;SDS011;8162;47.104;15.432;2023-08-08T13:41:25;0.80;;;0.80;;
16115;SDS011;8162;47.104;15.432;2023-08-08T13:44:26;0.77;;;0.77;;
16115;SDS011;8162;47.104;15.432;2023-08-08T13:47:27;0.67;;;0.67;;
16115;SDS011;8162;47.104;15.432;2023-08-08T13:50:28;0.80;;;0.80;;
16115;SDS011;8162;47.104;15.432;2023-08-08T13:53:29;1.10;;;0.87;;
16115;SDS011;8162;47.104;15.432;2023-08-08T13:56:30;2.23;;;0.80;;
16115;SDS011;8162;47.104;15.432;2023-08-08T13:59:31;0.73;;;0.70;;
16115;SDS011;8162;47.104;15.432;2023-08-08T14:02:32;0.60;;;0.60;;
16115;SDS011;8162;47.104;15.432;2023-08-08T14:05:33;0.93;;;0.70;;
16115;SDS011;8162;47.104;15.432;2023-08-08T14:08:34;2.87;;;0.80;;
16115;SDS011;8162;47.104;15.432;2023-08-08T14:11:35;1.30;;;0.83;;
16115;SDS011;8162;47.104;15.432;2023-08-08T14:14:36;1.23;;;0.90;;
16115;SDS011;8162;47.104;15.432;2023-08-08T14:17:37;1.10;;;0.73;;
16115;SDS011;8162;47.104;15.432;2023-08-08T14:20:38;1.03;;;0.80;;
16115;SDS011;8162;47.104;15.432;2023-08-08T14:23:39;0.80;;;0.80;;
16115;SDS011;8162;47.104;15.432;2023-08-08T14:26:40;0.80;;;0.80;;
16115;SDS011;8162;47.104;15.432;2023-08-08T14:29:41;0.80;;;0.80;;
16115;SDS011;8162;47.104;15.432;2023-08-08T14:32:42;1.13;;;0.70;;
16115;SDS011;8162;47.104;15.432;2023-08-08T14:35:43;1.30;;;0.70;;
16115;SDS011;8162;47.104;15.432;2023-08-08T14:38:44;2.90;;;0.80;;
16115;SDS011;8162;47.104;15.432;2023-08-08T14:41:45;2.07;;;0.87;;
16115;SDS011;8162;47.104;15.432;2023-08-08T14:44:46;1.27;;;0.90;;
16115;SDS011;8162;47.104;15.432;2023-08-08T14:47:47;0.67;;;0.67;;
16115;SDS011;8162;47.104;15.432;2023-08-08T14:50:48;1.90;;;0.93;;
16115;SDS011;8162;47.104;15.432;2023-08-08T14:53:49;0.77;;;0.67;;
16115;SDS011;8162;47.104;15.432;2023-08-08T14:56:51;2.03;;;1.13;;
16115;SDS011;8162;47.104;15.432;2023-08-08T14:59:52;1.23;;;0.80;;
16115;SDS011;8162;47.104;15.432;2023-08-08T15:02:53;1.87;;;0.73;;
16115;SDS011;8162;47.104;15.432;2023-08-08T15:05:54;1.30;;;0.73;;
16115;SDS011;8162;47.104;15.432;2023-08-08T15:08:55;1.00;;;0.90;;
16115;SDS011;8162;47.104;15.432;2023-08-08T15:11:56;1.40;;;0.67;;
16115;SDS011;8162;47.104;15.432;2023-08-08T15:14:57;1.33;;;0.93;;
16115;SDS011;8162;47.104;15.432;2023-08-08T15:17:58;3.67;;;1.00;;
16115;SDS011;8162;47.104;15.432;2023-08-08T15:20:59;1.20;;;0.73;;
16115;SDS011;8162;47.104;15.432;2023-08-08T15:24:00;1.83;;;1.10;;
16115;SDS011;8162;47.104;15.432;2023-08-08T15:27:02;4.30;;;0.93;;
16115;SDS011;8162;47.104;15.432;2023-08-08T15:30:04;0.80;;;0.80;;
16115;SDS011;8162;47.104;15.432;2023-08-08T15:33:05;1.00;;;0.90;;
16115;SDS011;8162;47.104;15.432;2023-08-08T15:36:06;0.70;;;0.70;;
16115;SDS011;8162;47.104;15.432;2023-08-08T15:39:07;4.17;;;1.00;;
16115;SDS011;8162;47.104;15.432;2023-08-08T15:42:08;2.93;;;0.90;;
16115;SDS011;8162;47.104;15.432;2023-08-08T15:45:10;1.90;;;1.13;;
16115;SDS011;8162;47.104;15.432;2023-08-08T15:48:12;1.07;;;0.87;;
16115;SDS011;8162;47.104;15.432;2023-08-08T15:51:13;2.37;;;1.00;;
16115;SDS011;8162;47.104;15.432;2023-08-08T15:54:14;3.37;;;0.90;;
16115;SDS011;8162;47.104;15.432;2023-08-08T15:57:15;1.37;;;0.80;;
16115;SDS011;8162;47.104;15.432;2023-08-08T16:00:16;0.80;;;0.80;;
16115;SDS011;8162;47.104;15.432;2023-08-08T16:03:19;0.80;;;0.70;;
16115;SDS011;8162;47.104;15.432;2023-08-08T16:06:20;2.40;;;0.97;;
16115;SDS011;8162;47.104;15.432;2023-08-08T16:09:22;1.40;;;0.90;;
16115;SDS011;8162;47.104;15.432;2023-08-08T16:12:23;1.07;;;0.80;;
16115;SDS011;8162;47.104;15.432;2023-08-08T16:15:24;0.97;;;0.60;;
16115;SDS011;8162;47.104;15.432;2023-08-08T16:18:25;1.77;;;0.93;;
16115;SDS011;8162;47.104;15.432;2023-08-08T16:21:26;0.90;;;0.80;;
16115;SDS011;8162;47.104;15.432;2023-08-08T16:24:27;0.80;;;0.80;;
16115;SDS011;8162;47.104;15.432;2023-08-08T16:27:28;0.60;;;0.60;;
16115;SDS011;8162;47.104;15.432;2023-08-08T16:30:29;2.57;;;0.93;;
16115;SDS011;8162;47.104;15.432;2023-08-08T16:33:30;1.33;;;0.70;;
16115;SDS011;8162;47.104;15.432;2023-08-08T16:36:31;1.63;;;0.70;;
16115;SDS011;8162;47.104;15.432;2023-08-08T16:39:32;0.97;;;0.73;;
16115;SDS011;8162;47.104;15.432;2023-08-08T16:42:33;0.83;;;0.83;;
16115;SDS011;8162;47.104;15.432;2023-08-08T16:45:34;0.70;;;0.70;;
16115;SDS011;8162;47.104;15.432;2023-08-08T16:48:35;0.90;;;0.80;;
16115;SDS011;8162;47.104;15.432;2023-08-08T16:51:36;1.17;;;0.70;;
16115;SDS011;8162;47.104;15.432;2023-08-08T16:54:37;1.13;;;0.80;;
16115;SDS011;8162;47.104;15.432;2023-08-08T16:57:40;1.30;;;0.93;;
16115;SDS011;8162;47.104;15.432;2023-08-08T17:00:41;1.20;;;0.90;;
16115;SDS011;8162;47.104;15.432;2023-08-08T17:03:42;0.90;;;0.63;;
16115;SDS011;8162;47.104;15.432;2023-08-08T17:06:43;1.20;;;0.80;;
16115;SDS011;8162;47.104;15.432;2023-08-08T17:09:45;2.70;;;0.90;;
16115;SDS011;8162;47.104;15.432;2023-08-08T17:12:46;0.93;;;0.70;;
16115;SDS011;8162;47.104;15.432;2023-08-08T17:15:47;1.07;;;0.63;;
16115;SDS011;8162;47.104;15.432;2023-08-08T17:18:49;1.23;;;0.80;;
16115;SDS011;8162;47.104;15.432;2023-08-08T17:21:52;0.57;;;0.57;;
16115;SDS011;8162;47.104;15.432;2023-08-08T17:24:56;0.80;;;0.80;;
16115;SDS011;8162;47.104;15.432;2023-08-08T17:27:57;2.37;;;0.73;;
16115;SDS011;8162;47.104;15.432;2023-08-08T17:30:59;0.80;;;0.80;;
16115;SDS011;8162;47.104;15.432;2023-08-08T17:34:00;1.27;;;0.63;;
16115;SDS011;8162;47.104;15.432;2023-08-08T17:37:05;2.60;;;1.10;;
16115;SDS011;8162;47.104;15.432;2023-08-08T17:40:06;2.27;;;0.90;;
16115;SDS011;8162;47.104;15.432;2023-08-08T17:43:09;3.27;;;1.20;;
16115;SDS011;8162;47.104;15.432;2023-08-08T17:46:11;3.73;;;0.97;;
16115;SDS011;8162;47.104;15.432;2023-08-08T17:49:12;2.13;;;0.87;;
16115;SDS011;8162;47.104;15.432;2023-08-08T17:52:13;1.20;;;1.00;;
16115;SDS011;8162;47.104;15.432;2023-08-08T17:55:15;2.47;;;1.00;;
16115;SDS011;8162;47.104;15.432;2023-08-08T17:58:18;1.53;;;0.90;;
16115;SDS011;8162;47.104;15.432;2023-08-08T18:01:20;1.33;;;0.87;;
16115;SDS011;8162;47.104;15.432;2023-08-08T18:04:21;1.50;;;0.90;;
16115;SDS011;8162;47.104;15.432;2023-08-08T18:07:22;2.57;;;1.07;;
16115;SDS011;8162;47.104;15.432;2023-08-08T18:10:24;1.40;;;0.80;;
16115;SDS011;8162;47.104;15.432;2023-08-08T18:13:26;2.13;;;0.90;;
16115;SDS011;8162;47.104;15.432;2023-08-08T18:16:27;0.90;;;0.70;;